Time;durP1;ratioP1;P1;durP2;ratioP2;P2;SDS_P1;SDS_P2;PMS_P1;PMS_P2;Temp;Humidity;BMP_temperature;BMP_pressure;BME280_temperature;BME280_humidity;BME280_pressure;Samples;Min_cycle;Max_cycle;Signal;HPM_P1;HPM_P2
2023/05/17 00:01:26;;;;;;;5.38;1.00;;;9.80;99.90;;;;;;5052785;28;20095;-74
2023/05/17 00:03:55;;;;;;;5.40;1.17;;;9.80;99.90;;;;;;5068350;28;20102;-74
2023/05/17 00:06:21;;;;;;;3.83;1.02;;;9.80;99.90;;;;;;5056357;28;20504;-74
2023/05/17 00:08:46;;;;;;;10.80;1.40;;;9.70;99.90;;;;;;5050842;28;20037;-74
2023/05/17 00:11:12;;;;;;;3.83;0.85;;;9.70;99.90;;;;;;5049859;28;20669;-74
2023/05/17 00:13:38;;;;;;;5.43;1.17;;;9.60;99.90;;;;;;5053398;28;20086;-74
2023/05/17 00:16:04;;;;;;;5.40;1.00;;;9.60;99.90;;;;;;5063572;28;20040;-74
2023/05/17 00:18:30;;;;;;;4.20;0.95;;;9.60;99.90;;;;;;5068292;28;20536;-73
2023/05/17 00:20:56;;;;;;;5.45;0.90;;;9.50;99.90;;;;;;5064823;28;21039;-75
2023/05/17 00:23:21;;;;;;;6.18;1.52;;;9.50;99.90;;;;;;5095095;28;20115;-74
2023/05/17 00:25:47;;;;;;;3.20;0.80;;;9.40;99.90;;;;;;5067268;28;20029;-74
2023/05/17 00:28:12;;;;;;;3.20;0.98;;;9.40;99.90;;;;;;5068726;28;20510;-73
2023/05/17 00:30:38;;;;;;;8.23;1.20;;;9.40;99.90;;;;;;5062018;28;20041;-73
2023/05/17 00:33:03;;;;;;;7.22;1.25;;;9.40;99.90;;;;;;5067730;28;20532;-74
2023/05/17 00:35:29;;;;;;;5.20;1.00;;;9.30;99.90;;;;;;5067384;28;20072;-74
2023/05/17 00:37:55;;;;;;;6.10;0.90;;;9.30;99.90;;;;;;5059600;28;20488;-74
2023/05/17 00:40:21;;;;;;;5.75;1.10;;;9.30;99.90;;;;;;5102530;28;20054;-74
2023/05/17 00:42:48;;;;;;;7.72;1.42;;;9.20;99.90;;;;;;5049014;28;20049;-73
2023/05/17 00:45:13;;;;;;;3.10;0.75;;;9.20;99.90;;;;;;5058199;28;20062;-74
2023/05/17 00:47:39;;;;;;;9.20;1.35;;;9.20;99.90;;;;;;5060653;28;20414;-74
2023/05/17 00:50:05;;;;;;;4.25;0.70;;;9.20;99.90;;;;;;5069836;28;20036;-74
2023/05/17 00:52:31;;;;;;;6.57;1.00;;;9.20;99.90;;;;;;5069811;28;20052;-74
2023/05/17 00:54:57;;;;;;;2.83;1.13;;;9.10;99.90;;;;;;5057921;28;20047;-74
2023/05/17 00:57:23;;;;;;;3.78;0.88;;;9.10;99.90;;;;;;5064803;28;20497;-74
2023/05/17 00:59:50;;;;;;;2.92;0.75;;;9.00;99.90;;;;;;5063041;28;20036;-75
2023/05/17 01:02:16;;;;;;;4.85;1.17;;;9.00;99.90;;;;;;5065162;28;20036;-74
2023/05/17 01:04:43;;;;;;;15.20;1.25;;;9.00;99.90;;;;;;5065936;28;20062;-74
2023/05/17 01:07:09;;;;;;;10.10;1.10;;;8.90;99.90;;;;;;5100433;28;20115;-74
2023/05/17 01:09:35;;;;;;;5.82;1.27;;;8.90;99.90;;;;;;5068510;28;20543;-75
2023/05/17 01:12:26;;;;;;;6.65;1.30;;;9.00;99.90;;;;;;5067273;28;20124;-74
2023/05/17 01:15:13;;;;;;;10.15;1.02;;;8.90;99.90;;;;;;5066719;28;20048;-74
2023/05/17 01:17:54;;;;;;;5.07;0.77;;;8.90;99.90;;;;;;5054421;28;20056;-74
2023/05/17 01:20:30;;;;;;;1.80;0.75;;;8.90;99.90;;;;;;5061181;28;20191;-74
2023/05/17 01:23:13;;;;;;;3.92;0.80;;;8.90;99.90;;;;;;5063107;28;20512;-74
2023/05/17 01:26:15;;;;;;;3.13;0.65;;;8.90;99.90;;;;;;5052739;28;20072;-74
2023/05/17 01:28:44;;;;;;;7.18;1.20;;;8.90;99.90;;;;;;5062952;28;20044;-74
2023/05/17 01:31:10;;;;;;;2.95;0.90;;;8.90;99.90;;;;;;5055099;28;20194;-74
2023/05/17 01:33:37;;;;;;;5.00;0.98;;;9.00;99.90;;;;;;5068255;28;20048;-74
2023/05/17 01:36:03;;;;;;;5.88;0.80;;;9.00;99.90;;;;;;5061872;28;20040;-74
2023/05/17 01:38:29;;;;;;;7.40;0.88;;;9.00;99.90;;;;;;5067083;28;20039;-74
2023/05/17 01:40:59;;;;;;;4.97;1.60;;;8.90;99.90;;;;;;5068192;28;20028;-74
2023/05/17 01:43:50;;;;;;;5.28;1.08;;;9.00;99.90;;;;;;5039547;28;20033;-74
2023/05/17 01:46:18;;;;;;;7.70;1.10;;;8.90;99.90;;;;;;5032748;28;20079;-74
2023/05/17 01:48:49;;;;;;;6.13;1.38;;;9.00;99.90;;;;;;5054934;28;20044;-74
2023/05/17 01:51:19;;;;;;;3.75;1.00;;;8.90;99.90;;;;;;5054915;28;20041;-74
2023/05/17 01:53:55;;;;;;;6.82;1.23;;;8.90;99.90;;;;;;5066969;28;20411;-74
2023/05/17 01:56:32;;;;;;;5.75;0.95;;;8.80;99.90;;;;;;5051934;28;20062;-73
2023/05/17 01:58:58;;;;;;;8.60;0.75;;;8.80;99.90;;;;;;5057118;28;20044;-74
2023/05/17 02:01:27;;;;;;;4.40;1.02;;;8.80;99.90;;;;;;5063421;28;20068;-75
2023/05/17 02:03:53;;;;;;;9.82;0.93;;;8.80;99.90;;;;;;5067765;28;20482;-74
2023/05/17 02:06:18;;;;;;;4.55;0.60;;;8.70;99.90;;;;;;5063731;28;20029;-74
2023/05/17 02:08:44;;;;;;;2.03;0.75;;;8.70;99.90;;;;;;5062051;28;20045;-74
2023/05/17 02:11:10;;;;;;;4.65;0.82;;;8.70;99.90;;;;;;5066783;28;20045;-74
2023/05/17 02:13:35;;;;;;;6.15;1.40;;;8.70;99.90;;;;;;5048363;28;20048;-73
2023/05/17 02:16:02;;;;;;;3.20;0.65;;;8.60;99.90;;;;;;5067882;28;20054;-74
2023/05/17 02:18:28;;;;;;;3.85;0.80;;;8.60;99.90;;;;;;5065749;28;20076;-74
2023/05/17 02:20:53;;;;;;;4.60;0.90;;;8.50;99.90;;;;;;5065804;28;20075;-74
2023/05/17 02:23:20;;;;;;;5.65;0.90;;;8.50;99.90;;;;;;5063239;28;20072;-74
2023/05/17 02:25:45;;;;;;;6.60;1.00;;;8.50;99.90;;;;;;5066624;28;20123;-74
2023/05/17 02:28:11;;;;;;;3.40;0.80;;;8.40;99.90;;;;;;5066848;28;20135;-74
2023/05/17 02:30:39;;;;;;;5.78;0.55;;;8.30;99.90;;;;;;5067942;28;20592;-74
2023/05/17 02:33:05;;;;;;;3.10;0.60;;;8.30;99.90;;;;;;5059619;28;20045;-74
2023/05/17 02:35:31;;;;;;;6.20;1.30;;;8.30;99.90;;;;;;5047334;28;20045;-74
2023/05/17 02:37:57;;;;;;;2.90;0.77;;;8.30;99.90;;;;;;5056525;28;20464;-74
2023/05/17 02:40:22;;;;;;;5.03;1.02;;;8.30;99.90;;;;;;5066664;28;20037;-74
2023/05/17 02:42:48;;;;;;;4.88;1.42;;;8.20;99.90;;;;;;5047418;28;20039;-74
2023/05/17 02:45:13;;;;;;;2.30;0.60;;;8.20;99.90;;;;;;5051012;28;20040;-74
2023/05/17 02:47:39;;;;;;;7.93;0.98;;;8.20;99.90;;;;;;5065890;28;20046;-73
2023/05/17 02:50:05;;;;;;;5.13;1.38;;;8.20;99.90;;;;;;5071240;28;20083;-75
2023/05/17 02:52:30;;;;;;;8.50;1.35;;;8.20;99.90;;;;;;5083052;28;20036;-74
2023/05/17 02:54:56;;;;;;;5.53;0.80;;;8.20;99.90;;;;;;5051010;28;20063;-74
2023/05/17 02:57:22;;;;;;;4.30;1.00;;;8.20;99.90;;;;;;5064299;28;20048;-74
2023/05/17 02:59:47;;;;;;;3.67;0.85;;;8.10;99.90;;;;;;5062642;28;20033;-74
2023/05/17 03:02:13;;;;;;;9.38;1.25;;;8.10;99.90;;;;;;5059941;28;20036;-74
2023/05/17 03:04:38;;;;;;;2.13;0.70;;;8.10;99.90;;;;;;5064948;28;20044;-74
2023/05/17 03:07:04;;;;;;;3.50;0.73;;;8.20;99.90;;;;;;5064405;28;20104;-74
2023/05/17 03:09:30;;;;;;;4.22;0.68;;;8.20;99.90;;;;;;5049910;28;20135;-74
2023/05/17 03:11:55;;;;;;;4.60;0.90;;;8.20;99.90;;;;;;5069374;28;20076;-74
2023/05/17 03:14:21;;;;;;;2.47;0.70;;;8.20;99.90;;;;;;5070016;28;20036;-73
2023/05/17 03:16:47;;;;;;;4.72;0.98;;;8.20;99.90;;;;;;5066046;28;20049;-74
2023/05/17 03:19:12;;;;;;;6.63;0.95;;;8.20;99.90;;;;;;5071134;28;20043;-74
2023/05/17 03:21:38;;;;;;;3.78;1.33;;;8.20;99.90;;;;;;5053027;28;20122;-73
2023/05/17 03:24:03;;;;;;;4.57;0.80;;;8.10;99.90;;;;;;5061318;28;20131;-74
2023/05/17 03:26:30;;;;;;;3.35;0.80;;;8.20;99.90;;;;;;5065546;28;20072;-73
2023/05/17 03:28:56;;;;;;;4.53;1.00;;;8.20;99.90;;;;;;5068429;28;20052;-74
2023/05/17 03:31:22;;;;;;;8.55;0.93;;;8.20;99.90;;;;;;5077823;28;20045;-73
2023/05/17 03:33:47;;;;;;;7.00;1.15;;;8.30;99.90;;;;;;5064694;28;20102;-74
2023/05/17 03:36:13;;;;;;;5.95;0.80;;;8.30;99.90;;;;;;5066221;28;20048;-73
2023/05/17 03:38:38;;;;;;;2.30;1.10;;;8.30;99.90;;;;;;5069315;28;20075;-74
2023/05/17 03:41:04;;;;;;;5.72;1.40;;;8.40;99.90;;;;;;5068805;28;20045;-74
2023/05/17 03:43:30;;;;;;;3.67;0.77;;;8.40;99.90;;;;;;5067955;28;20047;-74
2023/05/17 03:45:56;;;;;;;8.07;1.40;;;8.40;99.90;;;;;;5098741;28;20040;-74
2023/05/17 03:48:21;;;;;;;5.88;0.65;;;8.40;99.90;;;;;;5066113;28;20047;-74
2023/05/17 03:50:47;;;;;;;3.90;0.98;;;8.40;99.90;;;;;;5053251;28;20439;-73
2023/05/17 03:53:12;;;;;;;3.80;0.80;;;8.40;99.90;;;;;;5063300;28;20045;-74
2023/05/17 03:55:38;;;;;;;2.78;0.50;;;8.40;99.90;;;;;;5059849;28;20110;-74
2023/05/17 03:58:04;;;;;;;4.10;1.08;;;8.40;99.90;;;;;;5082503;28;20094;-74
2023/05/17 04:00:30;;;;;;;2.55;0.55;;;8.50;99.90;;;;;;5066689;28;20127;-74
2023/05/17 04:02:55;;;;;;;5.70;0.93;;;8.50;99.90;;;;;;5068841;28;20629;-74
2023/05/17 04:05:21;;;;;;;3.90;1.02;;;8.40;99.90;;;;;;5067703;28;20492;-74
2023/05/17 04:07:46;;;;;;;3.28;0.88;;;8.50;99.90;;;;;;5068174;28;20480;-74
2023/05/17 04:10:12;;;;;;;5.13;1.02;;;8.50;99.90;;;;;;5066718;28;20121;-74
2023/05/17 04:12:38;;;;;;;3.67;0.60;;;8.50;99.90;;;;;;5055965;28;20037;-74
2023/05/17 04:15:04;;;;;;;4.00;0.80;;;8.50;99.90;;;;;;5056532;28;20044;-75
2023/05/17 04:17:29;;;;;;;4.88;0.52;;;8.50;99.90;;;;;;5056583;28;20429;-74
2023/05/17 04:19:55;;;;;;;0.82;0.45;;;8.50;99.90;;;;;;5064853;28;20029;-74
2023/05/17 04:22:21;;;;;;;5.32;0.90;;;8.50;99.90;;;;;;5068336;28;20037;-74
2023/05/17 04:24:46;;;;;;;3.65;0.70;;;8.50;99.90;;;;;;5067856;28;20499;-74
2023/05/17 04:27:12;;;;;;;4.45;0.95;;;8.50;99.90;;;;;;5096686;28;20698;-73
2023/05/17 04:29:38;;;;;;;2.50;0.70;;;8.50;99.90;;;;;;5069519;28;20052;-73
2023/05/17 04:32:04;;;;;;;6.07;0.80;;;8.50;99.90;;;;;;5058785;28;20140;-73
2023/05/17 04:34:30;;;;;;;4.53;0.95;;;8.50;99.90;;;;;;5101923;28;20063;-73
2023/05/17 04:36:56;;;;;;;2.13;0.65;;;8.50;99.90;;;;;;5084675;28;20036;-74
2023/05/17 04:39:22;;;;;;;3.22;0.88;;;8.50;99.90;;;;;;5066898;28;20465;-74
2023/05/17 04:41:47;;;;;;;2.53;0.50;;;8.50;99.90;;;;;;5066695;28;20028;-73
2023/05/17 04:44:13;;;;;;;1.52;0.60;;;8.50;99.90;;;;;;5052733;28;20494;-73
2023/05/17 04:46:40;;;;;;;1.33;0.60;;;8.60;99.90;;;;;;5052210;28;20044;-73
2023/05/17 04:49:06;;;;;;;2.20;0.60;;;8.60;99.90;;;;;;5068248;28;20444;-74
2023/05/17 04:51:31;;;;;;;1.98;0.60;;;8.60;99.90;;;;;;5101738;28;20036;-74
2023/05/17 04:53:59;;;;;;;4.07;0.77;;;8.60;99.90;;;;;;5065927;28;20529;-73
2023/05/17 04:56:25;;;;;;;2.47;0.50;;;8.70;99.90;;;;;;5037592;28;20036;-73
2023/05/17 04:58:51;;;;;;;1.88;0.70;;;8.70;99.90;;;;;;5067851;28;20035;-73
2023/05/17 05:01:17;;;;;;;1.73;0.60;;;8.70;99.90;;;;;;5065928;28;20491;-73
2023/05/17 05:03:42;;;;;;;4.03;1.10;;;8.70;99.90;;;;;;5060042;28;20512;-73
2023/05/17 05:06:08;;;;;;;1.35;0.60;;;8.60;99.90;;;;;;5058426;28;20120;-73
2023/05/17 05:08:34;;;;;;;3.92;0.73;;;8.70;99.90;;;;;;5085777;28;20384;-74
2023/05/17 05:10:59;;;;;;;1.85;0.82;;;8.70;99.90;;;;;;5066711;28;20032;-73
2023/05/17 05:13:25;;;;;;;1.50;0.43;;;8.70;99.90;;;;;;5065931;28;20044;-73
2023/05/17 05:15:51;;;;;;;4.40;0.70;;;8.70;99.90;;;;;;5068097;28;20047;-73
2023/05/17 05:18:16;;;;;;;1.20;0.40;;;8.70;99.90;;;;;;5049716;28;20036;-73
2023/05/17 05:20:42;;;;;;;7.03;1.15;;;8.60;99.90;;;;;;5067811;28;20029;-73
2023/05/17 05:23:08;;;;;;;1.42;0.30;;;8.60;99.90;;;;;;5048806;28;20521;-73
2023/05/17 05:25:34;;;;;;;3.30;0.52;;;8.60;99.90;;;;;;5100292;28;20048;-73
2023/05/17 05:27:59;;;;;;;2.90;0.40;;;8.70;99.90;;;;;;5060655;28;20055;-73
2023/05/17 05:30:25;;;;;;;1.23;0.43;;;8.70;99.90;;;;;;5064653;28;20032;-73
2023/05/17 05:32:52;;;;;;;4.85;1.08;;;8.80;99.90;;;;;;5063771;28;20028;-73
2023/05/17 05:35:17;;;;;;;1.65;0.55;;;8.80;99.90;;;;;;5060812;28;20041;-74
2023/05/17 05:37:44;;;;;;;7.97;1.02;;;8.80;99.90;;;;;;5065650;28;20397;-73
2023/05/17 05:40:10;;;;;;;3.03;0.30;;;8.80;99.90;;;;;;5059241;28;20469;-74
2023/05/17 05:42:36;;;;;;;1.25;0.30;;;8.80;99.90;;;;;;5087177;28;20123;-74
2023/05/17 05:45:02;;;;;;;1.10;0.40;;;8.90;99.90;;;;;;5058896;28;20115;-74
2023/05/17 05:47:28;;;;;;;2.85;0.68;;;8.90;99.90;;;;;;5065941;28;20398;-73
2023/05/17 05:49:53;;;;;;;1.33;0.40;;;8.90;99.90;;;;;;5053702;28;20037;-74
2023/05/17 05:52:19;;;;;;;1.27;0.28;;;9.00;99.90;;;;;;5059605;28;20527;-74
2023/05/17 05:54:45;;;;;;;1.60;0.50;;;9.00;99.90;;;;;;5062604;28;20490;-73
2023/05/17 05:57:11;;;;;;;3.78;0.43;;;9.00;99.90;;;;;;5055166;28;20085;-74
2023/05/17 05:59:36;;;;;;;3.08;0.40;;;9.00;99.90;;;;;;5081441;28;20526;-74
2023/05/17 06:02:02;;;;;;;4.45;0.57;;;9.00;99.90;;;;;;5050432;28;20071;-74
2023/05/17 06:04:29;;;;;;;1.65;0.32;;;9.00;99.90;;;;;;5041921;28;20097;-74
2023/05/17 06:06:54;;;;;;;2.97;0.50;;;9.10;99.90;;;;;;5060282;28;20118;-73
2023/05/17 06:09:20;;;;;;;0.65;0.35;;;9.20;99.90;;;;;;5034815;28;20095;-75
2023/05/17 06:11:45;;;;;;;2.63;0.60;;;9.30;99.90;;;;;;5061194;28;20567;-74
2023/05/17 06:14:11;;;;;;;1.92;0.47;;;9.30;99.90;;;;;;5061222;28;20139;-74
2023/05/17 06:16:37;;;;;;;6.43;0.85;;;9.40;99.90;;;;;;5096209;28;20041;-73
2023/05/17 06:19:03;;;;;;;2.88;0.60;;;9.50;99.90;;;;;;5059210;28;20029;-74
2023/05/17 06:21:28;;;;;;;3.03;0.50;;;9.50;99.90;;;;;;5055708;28;20033;-73
2023/05/17 06:23:54;;;;;;;2.72;0.50;;;9.50;99.60;;;;;;5062300;28;20583;-73
2023/05/17 06:26:20;;;;;;;1.05;0.43;;;9.50;99.60;;;;;;5067064;28;20032;-73
2023/05/17 06:28:45;;;;;;;2.10;0.63;;;9.50;99.10;;;;;;5063191;28;20421;-73
2023/05/17 06:31:11;;;;;;;2.90;0.50;;;9.60;99.60;;;;;;5064960;28;20120;-73
2023/05/17 06:33:36;;;;;;;0.90;0.30;;;9.80;99.30;;;;;;5065715;28;20646;-73
2023/05/17 06:36:02;;;;;;;0.73;0.20;;;9.80;98.50;;;;;;5064333;28;20086;-74
2023/05/17 06:38:28;;;;;;;4.50;0.50;;;9.80;99.30;;;;;;5063205;28;20115;-73
2023/05/17 06:40:54;;;;;;;2.20;0.60;;;9.70;99.10;;;;;;5062960;28;20033;-74
2023/05/17 06:43:21;;;;;;;2.22;0.45;;;9.70;98.70;;;;;;5060967;28;20036;-73
2023/05/17 06:45:46;;;;;;;5.45;0.60;;;9.70;99.60;;;;;;5042611;28;20192;-73
2023/05/17 06:48:12;;;;;;;3.88;0.50;;;9.80;99.40;;;;;;5079922;28;20142;-74
2023/05/17 06:50:38;;;;;;;4.40;0.82;;;9.90;99.00;;;;;;5064235;28;20093;-73
2023/05/17 06:53:04;;;;;;;5.15;0.60;;;10.00;98.80;;;;;;5062514;28;20036;-73
2023/05/17 06:55:30;;;;;;;6.53;1.02;;;10.00;98.70;;;;;;5066145;28;20048;-73
2023/05/17 06:57:55;;;;;;;6.18;0.60;;;9.90;99.20;;;;;;5065249;28;20042;-74
2023/05/17 07:00:21;;;;;;;2.72;0.45;;;9.90;98.50;;;;;;5066848;28;20163;-73
2023/05/17 07:02:46;;;;;;;2.28;0.47;;;10.00;98.50;;;;;;5048606;28;20033;-73
2023/05/17 07:05:12;;;;;;;3.78;0.95;;;10.00;98.70;;;;;;5063593;28;20041;-74
2023/05/17 07:07:38;;;;;;;5.18;0.60;;;10.00;98.60;;;;;;5065923;28;20044;-73
2023/05/17 07:10:07;;;;;;;4.72;0.50;;;10.10;98.30;;;;;;5059989;28;20178;-73
2023/05/17 07:12:32;;;;;;;2.30;0.43;;;10.10;98.40;;;;;;5065151;28;20350;-73
2023/05/17 07:14:58;;;;;;;1.58;0.52;;;10.10;98.40;;;;;;5066570;28;20115;-74
2023/05/17 07:17:24;;;;;;;3.22;0.63;;;10.10;98.30;;;;;;5064766;28;20072;-74
2023/05/17 07:19:49;;;;;;;3.60;0.70;;;10.00;97.70;;;;;;5060048;28;20037;-73
2023/05/17 07:22:16;;;;;;;5.95;0.70;;;10.00;98.10;;;;;;5065009;28;20060;-73
2023/05/17 07:24:43;;;;;;;5.15;0.93;;;10.00;97.80;;;;;;5065518;28;20035;-73
2023/05/17 07:27:09;;;;;;;3.45;0.60;;;10.00;98.00;;;;;;5062924;28;20639;-73
2023/05/17 07:29:34;;;;;;;2.17;0.60;;;9.90;98.30;;;;;;5061993;28;20040;-73
2023/05/17 07:32:00;;;;;;;3.22;0.77;;;10.00;98.00;;;;;;5048674;28;20024;-73
2023/05/17 07:34:25;;;;;;;5.10;0.40;;;10.00;97.50;;;;;;5056506;28;20040;-73
2023/05/17 07:36:51;;;;;;;5.68;0.60;;;10.00;97.40;;;;;;5064840;28;20086;-73
2023/05/17 07:39:17;;;;;;;2.47;0.73;;;9.90;97.00;;;;;;5064308;28;20219;-73
2023/05/17 07:41:42;;;;;;;5.95;1.15;;;9.90;97.60;;;;;;5065736;28;20116;-73
2023/05/17 07:44:08;;;;;;;4.00;0.70;;;9.90;97.60;;;;;;5065209;28;20574;-74
2023/05/17 07:46:33;;;;;;;1.85;0.57;;;10.00;97.50;;;;;;5047734;28;20041;-74
2023/05/17 07:48:59;;;;;;;4.70;0.60;;;10.00;97.50;;;;;;5059934;28;20051;-73
2023/05/17 07:51:25;;;;;;;0.98;0.50;;;9.90;97.70;;;;;;5069941;28;20441;-73
2023/05/17 07:53:50;;;;;;;3.90;0.80;;;9.90;97.80;;;;;;5052430;28;20083;-73
2023/05/17 07:56:16;;;;;;;4.00;0.68;;;10.00;97.70;;;;;;5056040;28;20508;-73
2023/05/17 07:58:42;;;;;;;3.38;0.77;;;10.00;97.80;;;;;;5069273;28;20036;-74
2023/05/17 08:01:08;;;;;;;3.30;0.65;;;10.00;97.90;;;;;;5066051;28;20486;-73
2023/05/17 08:03:35;;;;;;;4.65;0.90;;;10.10;97.50;;;;;;5046388;28;20037;-74
2023/05/17 08:06:00;;;;;;;3.88;0.80;;;10.10;97.30;;;;;;5063505;28;20589;-74
2023/05/17 08:08:26;;;;;;;5.97;0.82;;;10.10;96.90;;;;;;5062333;28;20056;-73
2023/05/17 08:10:52;;;;;;;1.65;0.40;;;10.10;97.40;;;;;;5064299;28;20032;-74
2023/05/17 08:13:17;;;;;;;2.17;0.68;;;10.00;97.50;;;;;;5062917;28;20414;-74
2023/05/17 08:15:43;;;;;;;4.85;0.60;;;10.10;96.80;;;;;;5062299;28;20386;-74
2023/05/17 08:18:08;;;;;;;1.95;0.63;;;10.20;96.70;;;;;;5069426;28;20783;-74
2023/05/17 08:20:34;;;;;;;2.92;0.60;;;10.20;96.40;;;;;;5057583;28;20112;-74
2023/05/17 08:23:00;;;;;;;4.80;0.68;;;10.30;96.50;;;;;;5061580;28;20082;-73
2023/05/17 08:25:25;;;;;;;3.78;0.88;;;10.40;96.30;;;;;;5058860;28;20032;-74
2023/05/17 08:27:51;;;;;;;2.97;0.60;;;10.40;95.90;;;;;;5053497;28;20098;-73
2023/05/17 08:30:16;;;;;;;5.15;0.70;;;10.40;96.10;;;;;;5044566;28;20127;-74
2023/05/17 08:32:43;;;;;;;4.88;0.82;;;10.40;96.00;;;;;;5064047;28;20501;-74
2023/05/17 08:35:09;;;;;;;4.93;0.80;;;10.40;95.90;;;;;;5064097;28;20131;-74
2023/05/17 08:37:35;;;;;;;4.72;0.90;;;10.40;96.50;;;;;;5062205;28;20174;-74
2023/05/17 08:40:01;;;;;;;4.43;0.63;;;10.50;96.10;;;;;;5052209;28;20379;-74
2023/05/17 08:42:29;;;;;;;2.65;0.70;;;10.50;95.50;;;;;;5047594;28;20533;-74
2023/05/17 08:44:55;;;;;;;5.32;0.65;;;10.60;95.40;;;;;;5060057;28;20039;-74
2023/05/17 08:47:32;;;;;;;1.05;0.30;;;10.60;95.50;;;;;;5061236;28;20044;-74
2023/05/17 08:49:59;;;;;;;2.10;0.40;;;10.70;95.40;;;;;;5064729;28;20482;-74
2023/05/17 08:52:32;;;;;;;2.67;0.85;;;10.70;94.40;;;;;;5067155;28;20073;-74
2023/05/17 08:55:06;;;;;;;2.90;0.55;;;10.70;94.40;;;;;;5085796;28;20036;-73
2023/05/17 08:57:35;;;;;;;4.72;0.70;;;10.70;94.10;;;;;;5058395;28;20468;-74
2023/05/17 09:00:05;;;;;;;3.33;0.50;;;10.70;94.30;;;;;;5059477;28;20036;-73
2023/05/17 09:02:32;;;;;;;6.97;0.88;;;10.70;94.70;;;;;;5057235;28;20798;-73
2023/05/17 09:04:58;;;;;;;3.05;0.77;;;10.70;95.10;;;;;;5072112;28;20175;-74
2023/05/17 09:07:24;;;;;;;2.03;0.70;;;10.60;95.20;;;;;;5060003;28;20048;-75
2023/05/17 09:09:53;;;;;;;1.52;0.65;;;10.70;95.20;;;;;;5056345;28;20054;-73
2023/05/17 09:12:20;;;;;;;4.20;0.60;;;10.70;95.20;;;;;;5070411;28;20040;-73
2023/05/17 09:14:46;;;;;;;0.77;0.30;;;10.80;95.80;;;;;;5088520;28;20059;-74
2023/05/17 09:17:19;;;;;;;2.78;0.50;;;10.90;95.30;;;;;;5058061;28;20358;-74
2023/05/17 09:19:47;;;;;;;2.08;0.60;;;10.90;94.30;;;;;;5062338;28;20037;-74
2023/05/17 09:22:14;;;;;;;3.22;1.02;;;10.90;94.60;;;;;;5066024;28;20088;-74
2023/05/17 09:24:41;;;;;;;5.03;0.70;;;10.80;94.40;;;;;;5065237;28;20055;-75
2023/05/17 09:27:08;;;;;;;4.15;0.65;;;10.80;95.10;;;;;;5093549;28;20056;-74
2023/05/17 09:29:34;;;;;;;4.10;0.93;;;10.70;95.30;;;;;;5064161;28;20084;-74
2023/05/17 09:32:14;;;;;;;6.90;0.88;;;10.70;95.20;;;;;;5067600;28;20032;-74
2023/05/17 09:34:41;;;;;;;3.25;0.60;;;10.70;94.50;;;;;;5061505;28;20131;-74
2023/05/17 09:37:17;;;;;;;7.25;1.23;;;10.70;95.20;;;;;;5090930;28;20040;-74
2023/05/17 09:39:45;;;;;;;3.03;0.75;;;10.80;93.70;;;;;;5059601;28;20132;-74
2023/05/17 09:42:12;;;;;;;2.90;0.40;;;10.70;94.30;;;;;;5065980;28;20098;-74
2023/05/17 09:44:46;;;;;;;2.25;0.45;;;10.80;94.90;;;;;;5061350;28;20036;-74
2023/05/17 09:47:27;;;;;;;2.53;0.70;;;10.90;95.20;;;;;;5046316;28;20040;-75
2023/05/17 09:49:59;;;;;;;4.97;0.60;;;10.90;94.70;;;;;;5049031;28;20044;-74
2023/05/17 09:52:34;;;;;;;3.28;0.50;;;11.10;94.50;;;;;;5060461;28;20094;-74
2023/05/17 09:55:00;;;;;;;2.20;0.55;;;11.10;94.30;;;;;;5056808;28;20457;-74
2023/05/17 09:57:27;;;;;;;3.03;0.60;;;11.10;93.20;;;;;;5052651;28;20055;-75
2023/05/17 09:59:56;;;;;;;4.88;0.60;;;11.00;93.10;;;;;;5059170;28;20486;-74
2023/05/17 10:02:35;;;;;;;3.53;0.50;;;11.00;92.90;;;;;;5060376;28;20056;-74
2023/05/17 10:05:06;;;;;;;1.42;0.38;;;11.00;90.30;;;;;;5058620;28;20037;-74
2023/05/17 10:07:33;;;;;;;3.33;0.63;;;11.00;92.50;;;;;;5060338;28;20036;-74
2023/05/17 10:10:00;;;;;;;6.05;0.80;;;11.10;92.70;;;;;;5059274;28;20043;-74
2023/05/17 10:12:28;;;;;;;6.30;0.70;;;11.10;93.10;;;;;;5057014;28;20122;-74
2023/05/17 10:14:55;;;;;;;3.28;0.57;;;11.10;92.80;;;;;;5056079;28;20036;-74
2023/05/17 10:17:22;;;;;;;3.50;0.57;;;11.20;92.90;;;;;;5037366;28;20052;-74
2023/05/17 10:19:49;;;;;;;3.33;0.57;;;11.20;92.50;;;;;;5039397;28;20170;-74
2023/05/17 10:22:15;;;;;;;2.55;0.55;;;11.20;91.50;;;;;;5054333;28;20131;-74
2023/05/17 10:24:43;;;;;;;1.38;0.50;;;11.20;92.40;;;;;;5058279;28;20135;-75
2023/05/17 10:27:09;;;;;;;2.08;0.50;;;11.30;91.80;;;;;;5066802;28;20083;-75
2023/05/17 10:29:38;;;;;;;4.40;0.90;;;11.40;92.10;;;;;;5055553;28;20144;-75
2023/05/17 10:32:08;;;;;;;3.50;0.63;;;11.40;90.30;;;;;;5062374;28;20036;-74
2023/05/17 10:34:35;;;;;;;3.75;0.98;;;11.40;89.40;;;;;;5093295;28;20079;-73
2023/05/17 10:37:01;;;;;;;1.45;0.93;;;11.40;90.40;;;;;;5059849;28;20127;-75
2023/05/17 10:39:28;;;;;;;1.55;0.50;;;11.40;89.30;;;;;;5056950;28;20029;-74
2023/05/17 10:41:55;;;;;;;1.55;0.60;;;11.30;89.40;;;;;;5093507;28;20035;-74
2023/05/17 10:44:22;;;;;;;2.20;0.40;;;11.30;90.00;;;;;;5060236;28;20086;-75
2023/05/17 10:46:57;;;;;;;3.97;0.57;;;11.40;91.40;;;;;;5056168;28;20774;-75
2023/05/17 10:49:29;;;;;;;2.15;0.70;;;11.50;91.20;;;;;;5054795;28;20079;-74
2023/05/17 10:52:17;;;;;;;2.95;0.93;;;11.60;91.00;;;;;;5061046;28;20564;-74
2023/05/17 10:54:46;;;;;;;1.52;0.28;;;11.70;84.70;;;;;;5061535;28;20072;-74
2023/05/17 10:57:21;;;;;;;5.30;0.68;;;11.60;88.50;;;;;;5062816;28;20679;-74
2023/05/17 10:59:58;;;;;;;2.30;0.32;;;11.60;80.90;;;;;;5080659;28;20065;-74
2023/05/17 11:02:25;;;;;;;7.28;0.50;;;11.60;84.90;;;;;;5058693;28;20028;-74
2023/05/17 11:04:52;;;;;;;4.70;0.40;;;11.80;89.60;;;;;;5054829;28;20064;-74
2023/05/17 11:07:20;;;;;;;3.22;0.43;;;11.80;87.00;;;;;;5061435;28;20573;-74
2023/05/17 11:10:10;;;;;;;3.78;0.75;;;11.80;87.80;;;;;;5063641;28;20496;-74
2023/05/17 11:12:40;;;;;;;4.47;0.88;;;11.70;77.60;;;;;;5059302;28;20060;-74
2023/05/17 11:15:10;;;;;;;2.40;0.47;;;11.80;88.00;;;;;;5043645;28;20143;-74
2023/05/17 11:17:35;;;;;;;1.35;0.50;;;11.90;86.30;;;;;;5059806;28;20045;-74
2023/05/17 11:20:05;;;;;;;3.13;0.40;;;11.90;85.80;;;;;;5059831;28;20043;-74
2023/05/17 11:22:38;;;;;;;1.25;0.50;;;11.90;83.90;;;;;;5044707;28;20410;-74
2023/05/17 11:25:10;;;;;;;1.63;0.43;;;11.80;81.90;;;;;;5072602;28;20044;-74
2023/05/17 11:27:37;;;;;;;3.75;0.80;;;11.90;83.90;;;;;;5038114;28;20124;-74
2023/05/17 11:30:30;;;;;;;4.30;0.98;;;11.90;85.40;;;;;;5087843;28;20498;-74
2023/05/17 11:33:05;;;;;;;4.75;0.50;;;12.00;70.20;;;;;;5052889;28;20048;-74
2023/05/17 11:35:36;;;;;;;3.47;0.50;;;11.90;77.40;;;;;;5054301;28;20044;-74
2023/05/17 11:38:26;;;;;;;4.45;0.38;;;11.90;84.20;;;;;;5057160;28;20166;-73
2023/05/17 11:40:53;;;;;;;3.50;0.40;;;11.90;70.20;;;;;;5058928;28;20086;-74
2023/05/17 11:43:24;;;;;;;5.35;0.65;;;11.80;81.70;;;;;;5064976;28;20033;-73
2023/05/17 11:46:00;;;;;;;2.05;0.82;;;11.90;83.90;;;;;;5064933;28;20044;-73
2023/05/17 11:48:28;;;;;;;2.72;0.70;;;11.90;80.40;;;;;;5069875;28;20040;-73
2023/05/17 11:50:58;;;;;;;2.65;0.45;;;11.80;78.30;;;;;;5070028;28;20080;-73
2023/05/17 11:53:24;;;;;;;4.38;0.82;;;11.70;80.40;;;;;;5071034;28;20044;-73
2023/05/17 11:55:51;;;;;;;2.58;0.43;;;11.60;82.80;;;;;;5069560;28;20044;-74
2023/05/17 11:58:24;;;;;;;1.27;0.47;;;11.60;82.20;;;;;;5068586;28;20041;-73
2023/05/17 12:00:55;;;;;;;2.58;0.43;;;11.60;83.10;;;;;;5099656;28;20041;-73
2023/05/17 12:03:28;;;;;;;2.97;0.57;;;11.70;78.80;;;;;;5103679;28;20062;-73
2023/05/17 12:06:11;;;;;;;5.28;0.50;;;11.80;79.70;;;;;;5100746;28;20094;-73
2023/05/17 12:08:39;;;;;;;1.80;0.60;;;11.90;70.70;;;;;;5067806;28;20040;-73
2023/05/17 12:11:13;;;;;;;1.75;0.50;;;11.90;78.00;;;;;;5071323;28;20128;-73
2023/05/17 12:13:41;;;;;;;1.35;0.50;;;11.90;79.80;;;;;;5100927;28;20472;-73
2023/05/17 12:16:11;;;;;;;1.40;0.60;;;11.90;81.90;;;;;;5083174;28;20052;-73
2023/05/17 12:18:38;;;;;;;4.13;0.82;;;12.10;80.00;;;;;;5084320;28;20290;-73
2023/05/17 12:21:05;;;;;;;3.20;0.70;;;12.20;80.40;;;;;;5067257;28;20494;-73
2023/05/17 12:23:39;;;;;;;1.02;0.50;;;12.30;79.50;;;;;;5070457;28;20039;-73
2023/05/17 12:26:11;;;;;;;3.33;0.60;;;12.30;80.10;;;;;;5052178;28;20123;-74
2023/05/17 12:28:39;;;;;;;5.20;0.70;;;12.20;82.20;;;;;;5065969;28;20174;-74
2023/05/17 12:31:10;;;;;;;1.08;0.50;;;12.20;77.80;;;;;;5069283;28;20048;-73
2023/05/17 12:33:39;;;;;;;4.43;0.38;;;12.10;78.70;;;;;;5069046;28;20040;-73
2023/05/17 12:36:07;;;;;;;2.05;0.50;;;12.10;82.30;;;;;;5068736;28;20040;-73
2023/05/17 12:38:33;;;;;;;2.88;0.75;;;12.10;83.90;;;;;;5041455;28;20033;-74
2023/05/17 12:41:04;;;;;;;1.35;0.38;;;12.20;82.20;;;;;;5057925;28;20051;-73
2023/05/17 12:43:32;;;;;;;3.38;0.60;;;12.20;83.20;;;;;;5076351;28;20032;-73
2023/05/17 12:46:04;;;;;;;3.08;0.68;;;12.20;81.30;;;;;;5058643;28;20115;-74
2023/05/17 12:48:31;;;;;;;3.75;0.70;;;12.10;73.90;;;;;;5062297;28;20116;-73
2023/05/17 12:51:04;;;;;;;1.50;0.35;;;12.10;77.00;;;;;;5037157;28;20530;-74
2023/05/17 12:53:49;;;;;;;2.92;0.60;;;12.10;77.60;;;;;;5067260;28;20517;-74
2023/05/17 12:56:17;;;;;;;3.10;0.55;;;12.20;70.30;;;;;;5078842;28;20055;-73